createdAt,value
2023-04-11T00:01:07.346Z,8.70
2023-04-11T00:03:34.732Z,8.60
2023-04-11T00:06:01.942Z,8.60
2023-04-11T00:08:29.012Z,8.60
2023-04-11T00:10:55.867Z,8.50
2023-04-11T00:13:24.050Z,8.50
2023-04-11T00:15:55.443Z,8.50
2023-04-11T00:18:25.700Z,8.50
2023-04-11T00:20:52.527Z,8.30
2023-04-11T00:23:20.345Z,8.30
2023-04-11T00:25:47.758Z,8.20
2023-04-11T00:28:15.444Z,8.20
2023-04-11T00:30:42.334Z,8.20
2023-04-11T00:33:09.198Z,8.20
2023-04-11T00:35:37.936Z,8.20
2023-04-11T00:38:05.562Z,8.20
2023-04-11T00:42:59.252Z,8.20
2023-04-11T00:45:28.153Z,8.20
2023-04-11T00:47:55.271Z,8.20
2023-04-11T00:50:22.316Z,8.10
2023-04-11T00:52:51.597Z,8.10
2023-04-11T00:55:18.561Z,8.10
2023-04-11T00:57:45.477Z,8.10
2023-04-11T01:00:13.825Z,8.10
2023-04-11T01:02:43.426Z,8.00
2023-04-11T01:05:11.971Z,8.00
2023-04-11T01:07:41.422Z,8.00
2023-04-11T01:10:10.779Z,8.00
2023-04-11T01:12:39.879Z,8.10
2023-04-11T01:15:07.334Z,8.10
2023-04-11T01:17:34.496Z,8.10
2023-04-11T01:20:01.915Z,8.10
2023-04-11T01:22:30.620Z,8.30
2023-04-11T01:24:57.708Z,8.10
2023-04-11T01:27:27.235Z,8.10
2023-04-11T01:29:54.133Z,8.10
2023-04-11T01:32:20.964Z,8.10
2023-04-11T01:34:49.605Z,8.10
2023-04-11T01:37:16.676Z,8.10
2023-04-11T01:39:43.762Z,8.10
2023-04-11T01:42:11.277Z,8.10
2023-04-11T01:44:38.487Z,8.10
2023-04-11T01:47:05.429Z,8.10
2023-04-11T01:49:32.383Z,8.00
2023-04-11T01:51:59.380Z,8.00
2023-04-11T01:54:26.305Z,8.10
2023-04-11T01:56:54.920Z,8.00
2023-04-11T01:59:21.926Z,8.00
2023-04-11T02:01:48.939Z,7.90
2023-04-11T02:04:16.086Z,7.80
2023-04-11T02:06:42.949Z,7.80
2023-04-11T02:09:09.763Z,7.70
2023-04-11T02:11:36.732Z,7.70
2023-04-11T02:14:04.086Z,7.70
2023-04-11T02:16:31.030Z,7.70
2023-04-11T02:18:58.343Z,7.60
2023-04-11T02:21:25.661Z,7.70
2023-04-11T02:23:52.493Z,7.70
2023-04-11T02:26:19.297Z,7.70
2023-04-11T02:28:46.081Z,7.60
2023-04-11T02:31:13.005Z,7.60
2023-04-11T02:33:39.849Z,7.60
2023-04-11T02:36:07.179Z,7.50
2023-04-11T02:38:34.090Z,7.50
2023-04-11T02:41:01.218Z,7.50
2023-04-11T02:43:28.025Z,7.40
2023-04-11T02:46:02.028Z,7.40
2023-04-11T02:48:32.997Z,7.30
2023-04-11T02:50:59.790Z,7.30
2023-04-11T02:53:26.609Z,7.30
2023-04-11T02:55:53.433Z,7.20
2023-04-11T02:58:20.266Z,7.20
2023-04-11T03:00:49.750Z,7.20
2023-04-11T03:03:16.702Z,7.20
2023-04-11T03:05:43.629Z,7.20
2023-04-11T03:08:10.455Z,7.20
2023-04-11T03:10:37.392Z,7.10
2023-04-11T03:13:04.341Z,7.20
2023-04-11T03:15:32.393Z,7.20
2023-04-11T03:17:59.603Z,7.10
2023-04-11T03:20:26.533Z,7.10
2023-04-11T03:22:53.507Z,7.10
2023-04-11T03:25:20.449Z,7.10
2023-04-11T03:27:57.619Z,7.10
2023-04-11T03:30:24.476Z,7.10
2023-04-11T03:32:53.106Z,7.10
2023-04-11T03:35:20.818Z,7.10
2023-04-11T03:37:48.286Z,7.00
2023-04-11T03:40:15.124Z,7.00
2023-04-11T03:42:42.007Z,7.00
2023-04-11T03:45:09.390Z,7.00
2023-04-11T03:47:36.332Z,7.00
2023-04-11T03:50:03.981Z,7.00
2023-04-11T03:52:30.850Z,7.00
2023-04-11T03:54:57.701Z,7.00
2023-04-11T03:57:26.967Z,7.00
2023-04-11T04:00:00.712Z,7.00
2023-04-11T04:02:27.697Z,7.00
2023-04-11T04:04:55.341Z,7.10
2023-04-11T04:07:22.324Z,7.10
2023-04-11T04:09:49.141Z,7.10
2023-04-11T04:12:17.801Z,7.00
2023-04-11T04:14:48.186Z,7.00
2023-04-11T04:17:16.335Z,7.10
2023-04-11T04:19:44.358Z,7.20
2023-04-11T04:22:17.746Z,7.10
2023-04-11T04:24:46.300Z,7.10
2023-04-11T04:27:18.225Z,7.10
2023-04-11T04:29:51.638Z,7.20
2023-04-11T04:32:22.955Z,7.20
2023-04-11T04:34:55.021Z,7.30
2023-04-11T04:37:27.546Z,7.30
2023-04-11T04:40:09.454Z,7.20
2023-04-11T04:42:36.528Z,7.30
2023-04-11T04:45:04.709Z,7.30
2023-04-11T04:47:34.087Z,7.40
2023-04-11T04:50:04.346Z,7.40
2023-04-11T04:52:31.352Z,7.40
2023-04-11T04:54:58.780Z,7.40
2023-04-11T04:57:27.263Z,7.40
2023-04-11T04:59:58.510Z,7.50
2023-04-11T05:02:26.896Z,7.60
2023-04-11T05:04:54.738Z,7.60
2023-04-11T05:07:21.601Z,7.60
2023-04-11T05:09:51.812Z,7.60
2023-04-11T05:12:26.202Z,7.60
2023-04-11T05:14:55.628Z,7.70
2023-04-11T05:17:25.305Z,7.70
2023-04-11T05:19:52.900Z,7.70
2023-04-11T05:22:19.753Z,7.70
2023-04-11T05:24:46.695Z,7.80
2023-04-11T05:27:19.528Z,7.90
2023-04-11T05:29:46.607Z,8.00
2023-04-11T05:32:14.296Z,8.10
2023-04-11T05:34:52.768Z,8.10
2023-04-11T05:37:20.102Z,8.10
2023-04-11T05:39:47.675Z,8.20
2023-04-11T05:42:17.487Z,8.30
2023-04-11T05:44:44.759Z,8.30
2023-04-11T05:47:11.991Z,8.30
2023-04-11T05:49:42.294Z,8.30
2023-04-11T05:52:09.938Z,8.40
2023-04-11T05:54:37.334Z,8.60
2023-04-11T05:57:04.338Z,8.60
2023-04-11T05:59:32.656Z,8.60
2023-04-11T06:02:00.943Z,8.60
2023-04-11T06:04:28.041Z,8.70
2023-04-11T06:06:55.865Z,8.80
2023-04-11T06:09:22.752Z,8.90
2023-04-11T06:11:49.572Z,9.00
2023-04-11T06:14:16.404Z,9.10
2023-04-11T06:16:44.333Z,9.20
2023-04-11T06:19:14.485Z,9.30
2023-04-11T06:21:54.776Z,9.30
2023-04-11T06:24:39.349Z,9.40
2023-04-11T06:27:10.049Z,9.50
2023-04-11T06:29:39.804Z,9.70
2023-04-11T06:32:07.617Z,9.70
2023-04-11T06:34:35.057Z,9.80
2023-04-11T06:37:02.097Z,9.90
2023-04-11T06:39:29.040Z,10.10
2023-04-11T06:42:02.244Z,10.30
2023-04-11T06:44:36.959Z,10.30
2023-04-11T06:47:04.025Z,10.50
2023-04-11T06:49:31.387Z,10.50
2023-04-11T06:51:59.811Z,10.60
2023-04-11T06:54:26.688Z,10.70
2023-04-11T06:56:53.641Z,10.70
2023-04-11T06:59:20.817Z,10.80
2023-04-11T07:01:48.831Z,10.90
2023-04-11T07:04:16.399Z,11.00
2023-04-11T07:06:43.426Z,11.20
2023-04-11T07:09:12.732Z,11.20
2023-04-11T07:11:39.921Z,11.30
2023-04-11T07:14:07.284Z,11.30
2023-04-11T07:16:35.161Z,11.40
2023-04-11T07:19:03.234Z,11.50
2023-04-11T07:21:32.595Z,11.70
2023-04-11T07:24:00.857Z,11.70
2023-04-11T07:26:32.216Z,11.90
2023-04-11T07:29:02.201Z,12.00
2023-04-11T07:31:29.231Z,12.10
2023-04-11T07:33:56.361Z,12.10
2023-04-11T07:36:23.337Z,12.20
2023-04-11T07:38:50.508Z,12.30
2023-04-11T07:41:17.360Z,12.30
2023-04-11T07:43:48.031Z,12.40
2023-04-11T07:46:15.706Z,12.50
2023-04-11T07:48:43.172Z,12.60
2023-04-11T07:51:10.065Z,12.70
2023-04-11T07:53:37.474Z,12.70
2023-04-11T07:56:05.107Z,12.80
2023-04-11T07:58:32.167Z,12.90
2023-04-11T08:00:59.579Z,12.90
2023-04-11T08:03:29.422Z,13.00
2023-04-11T08:05:59.301Z,13.10
2023-04-11T08:08:26.469Z,13.20
2023-04-11T08:10:53.358Z,13.10
2023-04-11T08:13:20.316Z,13.20
2023-04-11T08:15:48.261Z,13.40
2023-04-11T08:18:16.444Z,13.50
2023-04-11T08:20:43.490Z,13.70
2023-04-11T08:23:11.302Z,14.00
2023-04-11T08:25:39.170Z,14.50
2023-04-11T08:28:06.357Z,15.10
2023-04-11T08:30:33.345Z,15.50
2023-04-11T08:33:00.437Z,16.00
2023-04-11T08:35:27.702Z,16.20
2023-04-11T08:37:55.053Z,16.30
2023-04-11T08:40:21.993Z,16.70
2023-04-11T08:42:49.344Z,17.00
2023-04-11T08:45:19.929Z,17.10
2023-04-11T08:47:46.897Z,17.00
2023-04-11T08:50:17.451Z,16.70
2023-04-11T08:52:53.456Z,16.90
2023-04-11T08:58:44.282Z,17.10
2023-04-11T09:01:28.986Z,17.20
2023-04-11T09:03:56.369Z,17.00
2023-04-11T09:06:27.875Z,16.90
2023-04-11T09:08:55.204Z,17.10
2023-04-11T09:11:22.129Z,17.30
2023-04-11T09:14:08.510Z,17.50
2023-04-11T09:16:35.947Z,17.80
2023-04-11T09:19:03.244Z,17.90
2023-04-11T09:21:31.132Z,18.30
2023-04-11T09:24:17.705Z,18.30
2023-04-11T09:26:44.763Z,18.30
2023-04-11T09:29:11.774Z,18.20
2023-04-11T09:31:41.931Z,18.30
2023-04-11T09:34:09.159Z,18.50
2023-04-11T09:36:35.972Z,18.70
2023-04-11T09:39:23.935Z,18.90
2023-04-11T09:41:53.530Z,18.60
2023-04-11T09:44:37.711Z,18.60
2023-04-11T09:47:05.143Z,18.60
2023-04-11T09:49:34.296Z,18.80
2023-04-11T09:52:01.847Z,18.60
2023-04-11T09:54:30.027Z,18.20
2023-04-11T09:56:59.218Z,18.10
2023-04-11T09:59:30.587Z,18.20
2023-04-11T10:01:58.865Z,18.40
2023-04-11T10:04:28.911Z,18.70
2023-04-11T10:07:02.334Z,18.70
2023-04-11T10:09:30.095Z,19.10
2023-04-11T10:11:57.406Z,19.00
2023-04-11T10:14:39.822Z,19.20
2023-04-11T10:17:21.279Z,19.60
2023-04-11T10:19:57.066Z,19.60
2023-04-11T10:22:46.575Z,19.80
2023-04-11T10:25:16.975Z,20.10
2023-04-11T10:34:20.712Z,20.60
2023-04-11T10:37:13.382Z,20.60
2023-04-11T10:39:55.399Z,21.10
2023-04-11T10:42:42.346Z,21.10
2023-04-11T10:45:29.656Z,21.10
2023-04-11T10:48:27.738Z,21.10
2023-04-11T10:51:53.582Z,21.20
2023-04-11T10:54:35.813Z,21.10
2023-04-11T10:57:02.967Z,20.80
2023-04-11T10:59:34.220Z,20.60
2023-04-11T11:02:02.045Z,20.30
2023-04-11T11:04:42.184Z,20.20
2023-04-11T11:07:17.635Z,20.00
2023-04-11T11:09:53.852Z,20.10
2023-04-11T11:12:22.856Z,19.80
2023-04-11T11:14:54.049Z,19.70
2023-04-11T11:17:23.549Z,19.60
2023-04-11T11:19:50.572Z,19.60
2023-04-11T11:22:19.122Z,19.50
2023-04-11T11:24:45.992Z,19.40
2023-04-11T11:27:20.619Z,19.10
2023-04-11T11:30:05.550Z,18.90
2023-04-11T11:32:32.968Z,18.70
2023-04-11T11:35:00.593Z,18.90
2023-04-11T11:37:27.784Z,18.90
2023-04-11T11:39:57.839Z,18.90
2023-04-11T11:42:24.748Z,18.80
2023-04-11T11:44:51.708Z,18.60
2023-04-11T11:47:46.191Z,18.40
2023-04-11T11:50:27.040Z,17.90
2023-04-11T11:52:54.302Z,17.50
2023-04-11T11:55:22.436Z,17.40
2023-04-11T11:57:50.239Z,17.50
2023-04-11T12:00:25.880Z,17.50
2023-04-11T12:03:10.928Z,17.60
2023-04-11T12:05:38.818Z,18.00
2023-04-11T12:08:07.524Z,18.20
2023-04-11T12:10:43.594Z,18.40
2023-04-11T12:13:20.269Z,18.50
2023-04-11T12:15:53.193Z,18.70
2023-04-11T12:18:29.091Z,18.30
2023-04-11T12:20:56.114Z,18.30
2023-04-11T12:23:25.456Z,18.20
2023-04-11T12:25:52.436Z,17.90
2023-04-11T12:28:22.180Z,17.70
2023-04-11T12:30:49.038Z,17.40
2023-04-11T12:33:18.889Z,17.30
2023-04-11T12:36:00.344Z,17.10
2023-04-11T12:38:27.375Z,16.90
2023-04-11T12:41:13.864Z,16.70
2023-04-11T12:46:28.591Z,16.60
2023-04-11T12:58:51.131Z,16.60
2023-04-11T13:01:19.472Z,16.90
2023-04-11T13:03:46.574Z,17.30
2023-04-11T13:06:13.471Z,17.60
2023-04-11T13:08:40.330Z,18.00
2023-04-11T13:11:07.543Z,18.10
2023-04-11T13:13:35.648Z,18.00
2023-04-11T13:16:02.692Z,17.90
2023-04-11T13:18:29.680Z,17.90
2023-04-11T13:20:57.549Z,17.90
2023-04-11T13:23:24.578Z,18.00
2023-04-11T13:25:51.732Z,18.20
2023-04-11T13:28:19.398Z,18.60
2023-04-11T13:30:50.104Z,18.40
2023-04-11T13:33:17.034Z,18.50
2023-04-11T13:35:46.027Z,18.60
2023-04-11T13:38:25.754Z,18.80
2023-04-11T13:40:52.797Z,18.90
2023-04-11T13:43:25.758Z,19.00
2023-04-11T13:45:52.616Z,19.20
2023-04-11T13:48:19.584Z,19.00
2023-04-11T13:50:46.447Z,18.90
2023-04-11T13:53:14.045Z,18.60
2023-04-11T13:55:41.452Z,18.30
2023-04-11T13:58:08.306Z,18.20
2023-04-11T14:00:36.290Z,18.10
2023-04-11T14:03:03.426Z,18.20
2023-04-11T14:05:32.582Z,18.20
2023-04-11T14:08:00.190Z,18.30
2023-04-11T14:10:27.117Z,18.40
2023-04-11T14:12:54.240Z,18.40
2023-04-11T14:16:05.009Z,18.40
2023-04-11T14:18:36.151Z,18.00
2023-04-11T14:21:08.822Z,17.90
2023-04-11T14:23:36.303Z,17.90
2023-04-11T14:26:03.276Z,17.90
2023-04-11T14:28:30.150Z,17.90
2023-04-11T14:30:59.786Z,17.90
2023-04-11T14:33:27.359Z,17.90
2023-04-11T14:39:18.401Z,17.80
2023-04-11T14:41:45.486Z,17.90
2023-04-11T14:44:12.726Z,17.90
2023-04-11T14:46:39.637Z,18.00
2023-04-11T14:49:07.499Z,17.90
2023-04-11T14:54:40.000Z,17.90
2023-04-11T14:57:06.915Z,18.10
2023-04-11T14:59:34.077Z,18.20
2023-04-11T15:02:01.117Z,18.00
2023-04-11T15:04:28.536Z,17.80
2023-04-11T15:06:55.563Z,17.70
2023-04-11T15:09:22.529Z,17.60
2023-04-11T15:11:49.948Z,17.40
2023-04-11T15:14:16.780Z,17.30
2023-04-11T15:16:44.303Z,17.30
2023-04-11T15:19:11.247Z,17.40
2023-04-11T15:21:38.814Z,17.40
2023-04-11T15:24:07.465Z,17.40
2023-04-11T15:26:44.082Z,17.20
2023-04-11T15:29:17.982Z,17.10
2023-04-11T15:31:49.618Z,17.10
2023-04-11T15:34:17.020Z,17.00
2023-04-11T15:36:45.245Z,16.70
2023-04-11T15:39:12.204Z,16.60
2023-04-11T15:41:39.122Z,16.50
2023-04-11T15:44:06.593Z,16.40
2023-04-11T15:49:24.986Z,16.30
2023-04-11T15:59:04.257Z,16.10
2023-04-11T16:01:31.683Z,16.00
2023-04-11T16:04:00.150Z,16.00
2023-04-11T16:06:27.414Z,15.90
2023-04-11T16:08:54.574Z,15.80
2023-04-11T16:11:21.415Z,15.90
2023-04-11T16:16:32.080Z,15.70
2023-04-11T16:29:14.846Z,15.50
2023-04-11T16:31:41.832Z,15.40
2023-04-11T16:34:11.848Z,15.50
2023-04-11T16:36:53.891Z,15.50
2023-04-11T16:39:24.322Z,15.40
2023-04-11T16:41:57.339Z,15.40
2023-04-11T16:44:24.282Z,15.50
2023-04-11T16:47:33.944Z,15.40
2023-04-11T16:53:58.515Z,15.20
2023-04-11T16:56:43.472Z,15.00
2023-04-11T16:59:12.321Z,15.00
2023-04-11T17:01:39.418Z,15.00
2023-04-11T17:04:07.028Z,14.90
2023-04-11T17:06:37.500Z,14.90
2023-04-11T17:09:06.606Z,14.90
2023-04-11T17:11:36.207Z,14.90
2023-04-11T17:14:04.247Z,14.80
2023-04-11T17:16:32.349Z,14.80
2023-04-11T17:18:59.808Z,14.80
2023-04-11T17:21:27.497Z,14.70
2023-04-11T17:24:09.266Z,14.60
2023-04-11T17:26:50.229Z,14.50
2023-04-11T17:29:40.917Z,14.50
2023-04-11T17:32:14.900Z,14.40
2023-04-11T17:35:10.894Z,14.40
2023-04-11T17:37:38.235Z,14.30
2023-04-11T17:40:14.014Z,14.20
2023-04-11T17:42:46.223Z,14.10
2023-04-11T17:53:38.939Z,13.90
2023-04-11T17:58:05.881Z,13.70
2023-04-11T18:00:35.051Z,13.60
2023-04-11T18:03:06.177Z,13.50
2023-04-11T18:05:37.431Z,13.50
2023-04-11T18:08:05.564Z,13.40
2023-04-11T18:10:32.685Z,13.30
2023-04-11T18:12:59.675Z,13.30
2023-04-11T18:15:27.910Z,13.20
2023-04-11T18:17:55.373Z,13.10
2023-04-11T18:20:26.365Z,13.10
2023-04-11T18:22:57.511Z,13.10
2023-04-11T18:25:24.614Z,13.00
2023-04-11T18:27:51.519Z,13.00
2023-04-11T18:30:18.624Z,13.10
2023-04-11T18:32:50.700Z,12.90
2023-04-11T18:35:19.662Z,12.90
2023-04-11T18:37:46.664Z,12.80
2023-04-11T18:40:14.269Z,12.80
2023-04-11T18:42:43.227Z,12.80
2023-04-11T18:45:12.201Z,12.70
2023-04-11T18:47:41.651Z,12.70
2023-04-11T18:50:18.559Z,12.60
2023-04-11T18:52:46.921Z,12.50
2023-04-11T18:55:15.263Z,12.50
2023-04-11T18:57:47.798Z,12.50
2023-04-11T19:00:18.992Z,12.40
2023-04-11T19:02:50.319Z,12.40
2023-04-11T19:05:21.067Z,12.40
2023-04-11T19:07:48.222Z,12.30
2023-04-11T19:10:15.464Z,12.30
2023-04-11T19:12:42.429Z,12.20
2023-04-11T19:15:12.034Z,12.10
2023-04-11T19:17:39.111Z,12.10
2023-04-11T19:20:19.183Z,12.00
2023-04-11T19:22:46.624Z,12.00
2023-04-11T19:25:14.731Z,12.00
2023-04-11T19:27:42.780Z,12.00
2023-04-11T19:30:11.225Z,11.90
2023-04-11T19:32:40.981Z,11.80
2023-04-11T19:35:10.565Z,11.80
2023-04-11T19:37:38.741Z,11.80
2023-04-11T19:40:16.680Z,11.70
2023-04-11T19:42:45.361Z,11.70
2023-04-11T19:45:12.806Z,11.60
2023-04-11T19:47:42.313Z,11.60
2023-04-11T19:50:14.280Z,11.50
2023-04-11T19:52:42.665Z,11.50
2023-04-11T19:55:13.212Z,11.50
2023-04-11T19:57:41.094Z,11.50
2023-04-11T20:00:17.114Z,11.50
2023-04-11T20:02:46.040Z,11.40
2023-04-11T20:05:18.678Z,11.40
2023-04-11T20:07:46.576Z,11.30
2023-04-11T20:10:15.121Z,11.30
2023-04-11T20:12:42.037Z,11.30
2023-04-11T20:15:09.529Z,11.20
2023-04-11T20:17:46.403Z,11.20
2023-04-11T20:20:15.804Z,11.20
2023-04-11T20:22:44.973Z,11.20
2023-04-11T20:25:17.375Z,11.10
2023-04-11T20:27:44.345Z,11.10
2023-04-11T20:30:13.453Z,11.10
2023-04-11T20:32:41.312Z,11.10
2023-04-11T20:35:10.125Z,11.10
2023-04-11T20:37:37.370Z,11.20
2023-04-11T20:40:11.050Z,11.20
2023-04-11T20:42:40.094Z,11.30
2023-04-11T20:45:09.277Z,11.30
2023-04-11T20:47:37.680Z,11.40
2023-04-11T20:50:10.540Z,11.40
2023-04-11T20:52:38.193Z,11.40
2023-04-11T20:55:05.958Z,11.40
2023-04-11T20:57:35.528Z,11.40
2023-04-11T21:00:24.213Z,11.40
2023-04-11T21:02:51.717Z,11.50
2023-04-11T21:05:27.510Z,11.50
2023-04-11T21:07:54.857Z,11.50
2023-04-11T21:10:21.839Z,11.60
2023-04-11T21:12:51.953Z,11.60
2023-04-11T21:15:20.165Z,11.60
2023-04-11T21:31:55.793Z,11.80
2023-04-11T21:34:22.662Z,11.70
2023-04-11T21:36:50.753Z,11.70
2023-04-11T21:39:17.630Z,11.50
2023-04-11T21:41:44.989Z,11.50
2023-04-11T21:44:13.377Z,11.50
2023-04-11T21:46:40.599Z,11.50
2023-04-11T21:49:07.489Z,11.30
2023-04-11T21:51:34.414Z,11.20
2023-04-11T21:54:04.454Z,11.10
2023-04-11T21:56:31.517Z,11.10
2023-04-11T21:58:58.750Z,11.30
2023-04-11T22:01:25.686Z,11.20
2023-04-11T22:03:53.997Z,11.10
2023-04-11T22:06:22.738Z,11.10
2023-04-11T22:08:50.826Z,11.10
2023-04-11T22:11:18.762Z,11.10
2023-04-11T22:13:46.699Z,10.90
2023-04-11T22:16:14.203Z,10.80
2023-04-11T22:18:49.162Z,10.80
2023-04-11T22:21:22.151Z,10.80
2023-04-11T22:23:54.588Z,10.70
2023-04-11T22:26:35.010Z,10.60
2023-04-11T22:29:05.563Z,10.30
2023-04-11T22:31:38.932Z,10.30
2023-04-11T22:34:08.289Z,10.30
2023-04-11T22:36:37.855Z,10.30
2023-04-11T22:39:08.439Z,10.20
2023-04-11T22:41:38.648Z,10.20
2023-04-11T22:44:06.917Z,10.20
2023-04-11T22:46:38.679Z,10.10
2023-04-11T22:49:09.349Z,10.10
2023-04-11T22:51:38.031Z,10.10
2023-04-11T22:54:05.268Z,10.00
2023-04-11T22:56:32.184Z,10.00
2023-04-11T22:58:59.572Z,9.90
2023-04-11T23:01:26.478Z,9.90
2023-04-11T23:03:53.652Z,9.90
2023-04-11T23:06:20.805Z,9.80
2023-04-11T23:08:47.681Z,9.60
2023-04-11T23:11:14.945Z,9.60
2023-04-11T23:13:42.202Z,9.60
2023-04-11T23:16:09.113Z,9.50
2023-04-11T23:18:36.024Z,9.60
2023-04-11T23:21:04.463Z,9.60
2023-04-11T23:23:31.306Z,9.70
2023-04-11T23:25:58.781Z,9.60
2023-04-11T23:28:25.774Z,9.60
2023-04-11T23:30:52.733Z,9.60
2023-04-11T23:33:19.685Z,9.60
2023-04-11T23:35:47.157Z,9.60
2023-04-11T23:38:14.022Z,9.30
2023-04-11T23:40:40.833Z,9.40
2023-04-11T23:43:08.146Z,9.20
2023-04-11T23:45:37.774Z,9.30
2023-04-11T23:48:05.020Z,9.30
2023-04-11T23:50:32.028Z,9.30
2023-04-11T23:52:58.998Z,9.30
2023-04-11T23:55:26.720Z,9.20
2023-04-11T23:57:54.097Z,9.10
